Terminal Aerodrome Forecast
Issued by NWS

Home | Current Version | Previous Version | Text Only | Print | Product List | Glossary On
Versions: 1 2 3 4 5 6 7 8 9 10 11 12 13 14 15 16 17 18 19 20 21 22
000
FTUS41 KBTV 291700
TAFRUT
TAF
KRUT 291720Z 2918/3018 30005KT P6SM BKN045
     FM300200 14004KT P6SM SCT035
     FM300600 14005KT P6SM BCFG SKC
     FM301200 20006KT P6SM SCT045
      AMD LTD TO CLD VIS AND WIND=

USA.gov is the U.S. government's official web portal to all federal, state and local government web resources and services.